createdAt,value
2019-02-25T00:01:10.950Z,3.50
2019-02-25T00:03:39.645Z,3.43
2019-02-25T00:06:07.923Z,4.60
2019-02-25T00:09:07.357Z,3.50
2019-02-25T00:11:35.655Z,4.03
2019-02-25T00:14:03.978Z,3.53
2019-02-25T00:16:31.904Z,3.93
2019-02-25T00:19:00.042Z,3.47
2019-02-25T00:21:27.935Z,4.03
2019-02-25T00:23:56.183Z,3.30
2019-02-25T00:26:24.466Z,3.10
2019-02-25T00:28:52.332Z,3.20
2019-02-25T00:31:20.921Z,1.60
2019-02-25T00:33:48.702Z,2.03
2019-02-25T00:36:16.317Z,3.27
2019-02-25T00:38:43.873Z,2.57
2019-02-25T00:41:12.523Z,2.30
2019-02-25T00:43:40.434Z,2.17
2019-02-25T00:46:08.883Z,1.47
2019-02-25T00:48:37.461Z,2.17
2019-02-25T00:51:06.096Z,2.00
2019-02-25T00:53:34.222Z,1.70
2019-02-25T00:56:01.804Z,2.13
2019-02-25T00:58:30.083Z,2.60
2019-02-25T01:00:58.379Z,2.53
2019-02-25T01:03:25.965Z,2.57
2019-02-25T01:05:54.288Z,2.10
2019-02-25T01:08:22.195Z,1.73
2019-02-25T01:10:49.720Z,1.43
2019-02-25T01:13:17.367Z,4.27
2019-02-25T01:15:45.909Z,2.20
2019-02-25T01:18:14.512Z,1.83
2019-02-25T01:20:43.188Z,3.47
2019-02-25T01:23:11.589Z,2.27
2019-02-25T01:25:40.275Z,2.13
2019-02-25T01:28:08.545Z,1.57
2019-02-25T01:30:36.419Z,1.80
2019-02-25T01:33:04.680Z,3.73
2019-02-25T01:35:32.480Z,6.17
2019-02-25T01:38:01.115Z,1.97
2019-02-25T01:40:29.345Z,2.63
2019-02-25T01:42:57.931Z,2.53
2019-02-25T01:45:25.808Z,1.70
2019-02-25T01:47:54.086Z,3.17
2019-02-25T01:50:22.257Z,1.90
2019-02-25T01:52:50.855Z,2.90
2019-02-25T01:55:19.652Z,2.70
2019-02-25T01:57:47.871Z,3.30
2019-02-25T02:00:16.309Z,2.20
2019-02-25T02:02:44.533Z,2.73
2019-02-25T02:05:12.675Z,3.53
2019-02-25T02:07:40.974Z,2.00
2019-02-25T02:10:10.479Z,2.67
2019-02-25T02:12:39.058Z,3.80
2019-02-25T02:15:09.794Z,3.63
2019-02-25T02:17:37.668Z,2.43
2019-02-25T02:20:06.594Z,2.20
2019-02-25T02:22:35.149Z,2.87
2019-02-25T02:25:03.127Z,1.80
2019-02-25T02:27:30.913Z,1.87
2019-02-25T02:29:58.727Z,2.17
2019-02-25T02:32:27.289Z,2.10
2019-02-25T02:34:55.891Z,2.73
2019-02-25T02:37:23.708Z,2.13
2019-02-25T02:39:51.632Z,4.30
2019-02-25T02:42:39.831Z,1.70
2019-02-25T02:45:30.255Z,2.57
2019-02-25T02:48:36.917Z,3.27
2019-02-25T02:51:24.174Z,4.27
2019-02-25T02:53:52.367Z,3.27
2019-02-25T02:56:20.666Z,2.97
2019-02-25T02:58:49.251Z,2.10
2019-02-25T03:01:17.524Z,3.20
2019-02-25T03:03:45.394Z,2.87
2019-02-25T03:06:14.095Z,3.73
2019-02-25T03:08:42.770Z,1.80
2019-02-25T03:11:10.604Z,3.33
2019-02-25T03:13:38.429Z,2.03
2019-02-25T03:16:06.691Z,2.17
2019-02-25T03:18:35.305Z,2.00
2019-02-25T03:21:03.888Z,2.40
2019-02-25T03:23:32.411Z,2.13
2019-02-25T03:26:01.066Z,2.10
2019-02-25T03:28:29.131Z,2.77
2019-02-25T03:30:57.414Z,3.03
2019-02-25T03:33:24.996Z,2.57
2019-02-25T03:35:53.305Z,2.07
2019-02-25T03:38:21.661Z,2.10
2019-02-25T03:40:49.512Z,2.77
2019-02-25T03:43:17.618Z,2.53
2019-02-25T03:45:46.092Z,1.33
2019-02-25T03:48:14.348Z,3.63
2019-02-25T03:50:42.593Z,2.77
2019-02-25T03:53:10.425Z,4.43
2019-02-25T03:55:38.631Z,2.93
2019-02-25T03:58:06.989Z,2.47
2019-02-25T04:00:35.495Z,3.33
2019-02-25T04:03:03.850Z,1.93
2019-02-25T04:05:32.372Z,2.80
2019-02-25T04:08:00.615Z,3.07
2019-02-25T04:10:29.135Z,3.43
2019-02-25T04:12:57.801Z,2.90
2019-02-25T04:15:31.283Z,2.97
2019-02-25T04:17:59.222Z,4.27
2019-02-25T04:20:27.464Z,1.60
2019-02-25T04:22:55.709Z,2.53
2019-02-25T04:25:24.026Z,3.33
2019-02-25T04:27:52.165Z,3.33
2019-02-25T04:30:20.793Z,2.83
2019-02-25T04:32:48.986Z,3.13
2019-02-25T04:35:17.359Z,1.77
2019-02-25T04:37:45.652Z,2.33
2019-02-25T04:40:13.927Z,4.27
2019-02-25T04:42:42.247Z,2.57
2019-02-25T04:45:12.861Z,4.30
2019-02-25T04:47:41.148Z,2.77
2019-02-25T04:50:09.827Z,3.03
2019-02-25T04:52:37.754Z,4.30
2019-02-25T04:55:05.758Z,4.17
2019-02-25T04:57:33.645Z,3.93
2019-02-25T05:00:01.816Z,3.00
2019-02-25T05:02:30.346Z,3.70
2019-02-25T05:04:58.265Z,3.30
2019-02-25T05:07:26.144Z,5.17
2019-02-25T05:09:54.737Z,2.20
2019-02-25T05:12:22.884Z,4.67
2019-02-25T05:14:51.085Z,3.83
2019-02-25T05:17:19.384Z,3.30
2019-02-25T05:19:47.998Z,4.37
2019-02-25T05:22:16.754Z,2.83
2019-02-25T05:24:45.057Z,6.63
2019-02-25T05:27:13.266Z,3.37
2019-02-25T05:29:41.911Z,3.70
2019-02-25T05:32:10.171Z,2.50
2019-02-25T05:34:38.393Z,4.23
2019-02-25T05:37:06.956Z,3.53
2019-02-25T05:39:35.561Z,5.30
2019-02-25T05:42:03.826Z,5.13
2019-02-25T05:44:32.322Z,3.50
2019-02-25T05:47:00.915Z,6.00
2019-02-25T05:49:29.090Z,5.53
2019-02-25T05:51:57.636Z,3.97
2019-02-25T05:54:25.450Z,4.77
2019-02-25T05:56:53.691Z,3.47
2019-02-25T05:59:21.597Z,4.83
2019-02-25T06:01:49.366Z,4.67
2019-02-25T06:04:17.653Z,4.03
2019-02-25T06:06:46.239Z,5.90
2019-02-25T06:09:14.126Z,7.57
2019-02-25T06:11:42.409Z,7.70
2019-02-25T06:14:10.614Z,4.90
2019-02-25T06:16:38.455Z,5.53
2019-02-25T06:19:07.034Z,5.83
2019-02-25T06:21:35.735Z,2.97
2019-02-25T06:24:04.317Z,5.23
2019-02-25T06:26:32.191Z,4.57
2019-02-25T06:29:00.740Z,3.27
2019-02-25T06:31:29.259Z,4.00
2019-02-25T06:33:57.550Z,5.97
2019-02-25T06:36:25.841Z,3.67
2019-02-25T06:38:54.496Z,7.40
2019-02-25T06:41:22.715Z,4.40
2019-02-25T06:43:51.290Z,3.70
2019-02-25T06:46:19.973Z,3.53
2019-02-25T06:48:47.857Z,3.97
2019-02-25T06:51:16.181Z,6.73
2019-02-25T06:53:44.391Z,5.33
2019-02-25T06:56:12.590Z,3.70
2019-02-25T06:58:41.207Z,7.40
2019-02-25T07:01:09.081Z,4.20
2019-02-25T07:03:37.358Z,4.73
2019-02-25T07:06:24.680Z,3.50
2019-02-25T07:09:12.084Z,5.80
2019-02-25T07:11:59.800Z,5.60
2019-02-25T07:14:47.540Z,3.77
2019-02-25T07:17:34.927Z,2.77
2019-02-25T07:20:09.432Z,6.37
2019-02-25T07:23:16.259Z,10.10
2019-02-25T07:26:03.782Z,3.30
2019-02-25T07:28:51.069Z,5.13
2019-02-25T07:31:38.186Z,3.03
2019-02-25T07:34:25.651Z,4.10
2019-02-25T07:37:13.412Z,7.03
2019-02-25T07:40:00.379Z,5.37
2019-02-25T07:42:38.142Z,5.60
2019-02-25T07:45:28.481Z,7.37
2019-02-25T07:48:36.700Z,3.63
2019-02-25T07:51:24.227Z,6.13
2019-02-25T07:53:59.179Z,4.63
2019-02-25T07:56:35.034Z,6.10
2019-02-25T07:59:22.098Z,3.30
2019-02-25T08:02:09.684Z,4.30
2019-02-25T08:04:57.460Z,4.33
2019-02-25T08:07:44.614Z,5.03
2019-02-25T08:10:32.396Z,6.97
2019-02-25T08:16:21.687Z,4.90
2019-02-25T08:19:09.061Z,7.80
2019-02-25T08:24:49.492Z,4.20
2019-02-25T08:27:49.018Z,7.33
2019-02-25T08:30:48.138Z,5.67
2019-02-25T08:33:36.070Z,5.73
2019-02-25T08:37:02.755Z,4.50
2019-02-25T08:40:11.695Z,4.57
2019-02-25T08:42:57.675Z,15.53
2019-02-25T08:45:45.081Z,47.03
2019-02-25T08:48:17.798Z,11.97
2019-02-25T08:50:46.256Z,4.77
2019-02-25T08:55:54.715Z,54.00
2019-02-25T08:58:22.887Z,166.67
2019-02-25T09:00:51.168Z,367.87
2019-02-25T09:03:19.791Z,297.03
2019-02-25T09:05:48.558Z,193.70
2019-02-25T09:08:16.832Z,125.73
2019-02-25T09:10:44.395Z,119.23
2019-02-25T09:13:13.089Z,100.00
2019-02-25T09:15:41.385Z,64.53
2019-02-25T09:18:49.784Z,73.80
2019-02-25T09:21:18.334Z,55.97
2019-02-25T09:23:46.852Z,20.57
2019-02-25T09:26:15.077Z,21.87
2019-02-25T09:28:43.649Z,25.47
2019-02-25T09:31:12.110Z,23.87
2019-02-25T09:33:40.398Z,18.57
2019-02-25T09:36:08.981Z,14.87
2019-02-25T09:38:37.263Z,17.00
2019-02-25T09:41:05.542Z,12.43
2019-02-25T09:43:34.127Z,18.20
2019-02-25T09:46:02.671Z,15.50
2019-02-25T09:48:30.949Z,16.03
2019-02-25T09:50:59.631Z,17.40
2019-02-25T09:56:29.816Z,11.07
2019-02-25T09:58:57.686Z,9.07
2019-02-25T10:01:25.923Z,11.73
2019-02-25T10:03:54.246Z,8.40
2019-02-25T10:06:22.131Z,11.40
2019-02-25T10:08:50.776Z,12.80
2019-02-25T10:11:19.030Z,12.03
2019-02-25T10:13:47.697Z,7.37
2019-02-25T10:16:16.076Z,10.30
2019-02-25T10:18:44.370Z,8.30
2019-02-25T10:21:12.950Z,9.00
2019-02-25T10:23:40.617Z,9.20
2019-02-25T10:26:09.042Z,11.90
2019-02-25T10:28:36.876Z,10.53
2019-02-25T10:31:04.455Z,11.27
2019-02-25T10:33:32.665Z,8.07
2019-02-25T10:36:00.922Z,10.53
2019-02-25T10:38:29.589Z,10.90
2019-02-25T10:40:59.363Z,8.47
2019-02-25T10:43:36.525Z,10.00
2019-02-25T10:46:51.552Z,7.17
2019-02-25T10:49:20.068Z,12.27
2019-02-25T10:51:48.418Z,9.60
2019-02-25T10:54:17.075Z,10.17
2019-02-25T10:57:14.491Z,8.67
2019-02-25T10:59:42.772Z,8.77
2019-02-25T11:02:13.172Z,9.43
2019-02-25T11:04:41.842Z,9.13
2019-02-25T11:07:10.342Z,9.77
2019-02-25T11:09:57.850Z,9.47
2019-02-25T11:12:27.819Z,7.13
2019-02-25T11:14:56.451Z,8.90
2019-02-25T11:17:24.648Z,11.53
2019-02-25T11:19:54.973Z,11.30
2019-02-25T11:22:28.882Z,12.17
2019-02-25T11:24:57.732Z,8.97
2019-02-25T11:27:35.353Z,12.13
2019-02-25T11:30:16.588Z,18.07
2019-02-25T11:36:05.536Z,13.10
2019-02-25T11:38:37.087Z,12.03
2019-02-25T11:53:15.200Z,12.57
2019-02-25T11:56:23.523Z,8.83
2019-02-25T12:01:52.355Z,11.43
2019-02-25T12:05:00.556Z,12.90
2019-02-25T12:07:28.826Z,9.73
2019-02-25T12:10:37.462Z,9.63
2019-02-25T12:16:07.184Z,10.33
2019-02-25T12:21:44.528Z,13.17
2019-02-25T12:24:52.821Z,10.33
2019-02-25T12:33:35.369Z,13.10
2019-02-25T12:36:03.709Z,6.93
2019-02-25T12:38:32.274Z,7.70
2019-02-25T12:41:01.064Z,7.07
2019-02-25T12:47:09.457Z,8.23
2019-02-25T12:49:56.991Z,7.73
2019-02-25T12:55:38.079Z,10.50
2019-02-25T12:58:37.391Z,5.10
2019-02-25T13:01:24.681Z,6.80
2019-02-25T13:04:33.374Z,6.30
2019-02-25T13:07:01.234Z,6.53
2019-02-25T13:09:29.632Z,4.33
2019-02-25T13:11:57.493Z,7.33
2019-02-25T13:14:26.056Z,5.67
2019-02-25T13:16:54.066Z,9.23
2019-02-25T13:19:22.355Z,6.57
2019-02-25T13:25:13.264Z,5.30
2019-02-25T13:27:48.721Z,5.67
2019-02-25T13:30:35.983Z,10.17
2019-02-25T13:33:04.498Z,4.23
2019-02-25T13:35:44.391Z,4.67
2019-02-25T13:38:12.858Z,5.27
2019-02-25T13:40:41.015Z,3.63
2019-02-25T13:43:09.051Z,4.73
2019-02-25T13:45:36.986Z,3.33
2019-02-25T13:48:05.567Z,3.63
2019-02-25T13:50:33.126Z,3.87
2019-02-25T13:56:21.739Z,4.37
2019-02-25T13:59:30.343Z,4.70
2019-02-25T14:02:10.393Z,4.40
2019-02-25T14:07:39.940Z,3.37
2019-02-25T14:10:20.503Z,3.87
2019-02-25T14:12:48.395Z,3.77
2019-02-25T14:18:29.409Z,5.23
2019-02-25T14:21:38.067Z,4.57
2019-02-25T14:27:29.594Z,3.57
2019-02-25T14:30:45.003Z,4.13
2019-02-25T14:33:14.444Z,4.43
2019-02-25T14:35:53.100Z,4.70
2019-02-25T14:38:29.919Z,3.33
2019-02-25T14:41:46.523Z,4.47
2019-02-25T14:47:46.965Z,3.87
2019-02-25T14:50:35.804Z,4.27
2019-02-25T14:53:54.741Z,3.43
2019-02-25T15:02:31.210Z,3.47
2019-02-25T15:08:21.519Z,2.97
2019-02-25T15:10:50.524Z,3.73
2019-02-25T15:13:19.699Z,2.60
2019-02-25T15:16:06.920Z,3.07
2019-02-25T15:19:15.512Z,2.80
2019-02-25T15:32:02.714Z,3.13
2019-02-25T15:37:36.625Z,5.97
2019-02-25T15:40:45.954Z,3.20
2019-02-25T15:43:45.709Z,4.80
2019-02-25T15:49:25.643Z,3.77
2019-02-25T15:58:16.093Z,3.20
2019-02-25T16:03:56.498Z,3.13
2019-02-25T16:06:31.755Z,6.63
2019-02-25T16:12:40.955Z,5.50
2019-02-25T16:15:29.132Z,3.07
2019-02-25T16:18:44.294Z,3.97
2019-02-25T16:21:43.942Z,5.87
2019-02-25T16:30:13.222Z,4.93
2019-02-25T16:33:23.750Z,4.50
2019-02-25T16:36:03.996Z,6.40
2019-02-25T16:42:05.251Z,9.03
2019-02-25T16:44:33.681Z,7.00
2019-02-25T16:50:23.252Z,6.37
2019-02-25T16:53:05.942Z,6.40
2019-02-25T16:58:40.449Z,8.47
2019-02-25T17:04:11.878Z,10.20
2019-02-25T17:10:01.398Z,13.93
2019-02-25T17:12:37.526Z,37.97
2019-02-25T17:18:26.736Z,34.83
2019-02-25T17:20:54.907Z,46.37
2019-02-25T17:23:25.127Z,44.47
2019-02-25T17:26:02.031Z,46.43
2019-02-25T17:28:29.938Z,47.53
2019-02-25T17:30:58.258Z,42.23
2019-02-25T17:33:28.219Z,43.03
2019-02-25T17:38:58.723Z,31.70
2019-02-25T17:41:39.919Z,30.53
2019-02-25T17:47:24.496Z,25.17
2019-02-25T17:52:50.161Z,18.77
2019-02-25T17:55:59.882Z,22.20
2019-02-25T17:58:38.093Z,22.77
2019-02-25T18:01:56.214Z,20.83
2019-02-25T18:04:26.549Z,18.23
2019-02-25T18:06:55.369Z,23.00
2019-02-25T18:09:24.840Z,22.73
2019-02-25T18:11:53.200Z,30.37
2019-02-25T18:14:21.466Z,27.57
2019-02-25T18:16:51.272Z,20.47
2019-02-25T18:19:20.860Z,21.27
2019-02-25T18:21:58.164Z,21.37
2019-02-25T18:24:32.968Z,22.17
2019-02-25T18:27:00.575Z,13.80
2019-02-25T18:29:28.818Z,10.70
2019-02-25T18:32:06.029Z,8.33
2019-02-25T18:34:44.319Z,9.40
2019-02-25T18:37:13.476Z,10.43
2019-02-25T18:39:50.067Z,16.20
2019-02-25T18:42:26.065Z,14.00
2019-02-25T18:44:54.462Z,8.50
2019-02-25T18:47:25.027Z,10.10
2019-02-25T18:49:53.976Z,10.43
2019-02-25T18:52:29.660Z,10.40
2019-02-25T18:55:06.738Z,12.37
2019-02-25T18:58:22.227Z,9.70
2019-02-25T19:04:11.140Z,7.73
2019-02-25T19:06:47.836Z,7.67
2019-02-25T19:09:23.175Z,6.50
2019-02-25T19:11:58.989Z,8.37
2019-02-25T19:14:28.875Z,8.73
2019-02-25T19:17:06.398Z,12.80
2019-02-25T19:20:21.582Z,10.23
2019-02-25T19:23:02.819Z,13.60
2019-02-25T19:28:45.921Z,16.23
2019-02-25T19:31:14.151Z,18.43
2019-02-25T19:33:42.749Z,20.50
2019-02-25T19:36:11.583Z,20.60
2019-02-25T19:38:41.848Z,19.60
2019-02-25T19:41:17.750Z,17.17
2019-02-25T19:43:47.422Z,14.77
2019-02-25T19:46:16.231Z,14.87
2019-02-25T19:48:47.021Z,15.67
2019-02-25T19:51:23.062Z,15.77
2019-02-25T19:53:59.829Z,16.17
2019-02-25T19:56:35.712Z,19.13
2019-02-25T19:59:05.657Z,23.97
2019-02-25T20:01:40.908Z,21.57
2019-02-25T20:04:11.480Z,24.33
2019-02-25T20:10:19.262Z,23.30
2019-02-25T20:16:15.825Z,22.67
2019-02-25T20:18:42.022Z,18.00
2019-02-25T20:21:22.545Z,17.63
2019-02-25T20:23:53.829Z,18.10
2019-02-25T20:26:28.775Z,19.33
2019-02-25T20:31:59.694Z,19.87
2019-02-25T20:34:29.710Z,17.27
2019-02-25T20:36:59.922Z,17.63
2019-02-25T20:40:17.137Z,17.23
2019-02-25T20:42:56.097Z,15.87
2019-02-25T20:45:32.640Z,13.57
2019-02-25T20:48:01.963Z,15.40
2019-02-25T20:51:22.711Z,13.63
2019-02-25T20:54:01.189Z,13.60
2019-02-25T20:56:30.911Z,11.90
2019-02-25T20:59:07.587Z,14.40
2019-02-25T21:02:16.776Z,14.57
2019-02-25T21:08:08.819Z,12.50
2019-02-25T21:10:36.870Z,23.60
2019-02-25T21:13:05.432Z,17.33
2019-02-25T21:15:35.729Z,20.30
2019-02-25T21:18:51.258Z,25.00
2019-02-25T21:21:30.762Z,45.57
2019-02-25T21:24:06.783Z,58.50
2019-02-25T21:30:04.366Z,52.37
2019-02-25T21:32:47.134Z,55.90
2019-02-25T21:35:27.612Z,53.90
2019-02-25T21:38:41.038Z,51.67
2019-02-25T21:41:11.173Z,47.83
2019-02-25T21:43:49.332Z,53.00
2019-02-25T21:52:46.150Z,42.30
2019-02-25T21:55:23.839Z,36.93
2019-02-25T21:58:30.448Z,30.90
2019-02-25T22:01:18.308Z,29.43
2019-02-25T22:03:48.712Z,30.60
2019-02-25T22:06:20.028Z,27.43
2019-02-25T22:12:21.997Z,22.83
2019-02-25T22:15:10.820Z,26.93
2019-02-25T22:17:53.019Z,25.13
2019-02-25T22:21:09.484Z,31.30
2019-02-25T22:23:43.517Z,32.00
2019-02-25T22:26:12.651Z,34.73
2019-02-25T22:32:03.943Z,23.77
2019-02-25T22:35:00.556Z,20.40
2019-02-25T22:37:49.664Z,18.37
2019-02-25T22:40:38.827Z,16.67
2019-02-25T22:43:59.957Z,18.03
2019-02-25T22:46:57.526Z,19.40
2019-02-25T22:49:45.432Z,21.03
2019-02-25T22:52:34.774Z,19.13
2019-02-25T22:55:54.738Z,24.07
2019-02-25T22:58:31.595Z,17.17
2019-02-25T23:07:50.217Z,23.83
2019-02-25T23:10:29.805Z,21.20
2019-02-25T23:12:58.513Z,23.43
2019-02-25T23:15:30.153Z,25.60
2019-02-25T23:18:25.853Z,28.90
2019-02-25T23:21:03.360Z,25.70
2019-02-25T23:24:12.027Z,21.10
2019-02-25T23:30:00.431Z,18.30
2019-02-25T23:33:11.785Z,15.63
2019-02-25T23:35:49.191Z,17.23
2019-02-25T23:38:18.858Z,16.13
2019-02-25T23:40:47.218Z,14.40
2019-02-25T23:43:16.727Z,13.80
2019-02-25T23:45:46.406Z,10.83
2019-02-25T23:48:21.712Z,16.07
2019-02-25T23:50:50.310Z,14.23
2019-02-25T23:53:31.089Z,12.60
2019-02-25T23:56:00.369Z,11.63
2019-02-25T23:58:28.637Z,14.23
